createdAt,value
2022-09-30T00:01:01.220Z,79.60
2022-09-30T00:03:29.168Z,79.70
2022-09-30T00:05:57.600Z,79.70
2022-09-30T00:08:24.736Z,79.70
2022-09-30T00:11:00.053Z,79.70
2022-09-30T00:13:26.991Z,79.70
2022-09-30T00:15:53.912Z,79.70
2022-09-30T00:18:22.351Z,79.70
2022-09-30T00:20:49.577Z,79.80
2022-09-30T00:23:16.371Z,79.80
2022-09-30T00:25:43.144Z,79.80
2022-09-30T00:28:10.181Z,79.80
2022-09-30T00:30:37.407Z,79.80
2022-09-30T00:33:04.303Z,79.80
2022-09-30T00:35:32.833Z,79.90
2022-09-30T00:38:00.165Z,79.90
2022-09-30T00:40:27.649Z,79.90
2022-09-30T00:42:54.448Z,80.00
2022-09-30T00:45:21.673Z,80.00
2022-09-30T00:47:54.604Z,79.90
2022-09-30T00:50:36.576Z,80.00
2022-09-30T00:53:12.565Z,80.00
2022-09-30T00:55:50.296Z,80.00
2022-09-30T00:58:22.531Z,80.10
2022-09-30T01:00:51.865Z,80.10
2022-09-30T01:03:22.648Z,80.10
2022-09-30T01:05:51.242Z,80.20
2022-09-30T01:08:20.753Z,80.20
2022-09-30T01:10:47.558Z,80.20
2022-09-30T01:13:15.591Z,80.20
2022-09-30T01:16:07.827Z,80.20
2022-09-30T01:18:47.150Z,80.20
2022-09-30T01:21:45.165Z,80.30
2022-09-30T01:24:57.370Z,80.30
2022-09-30T01:27:39.600Z,80.30
2022-09-30T01:30:11.929Z,80.30
2022-09-30T01:33:00.829Z,80.30
2022-09-30T01:35:37.867Z,80.40
2022-09-30T01:38:12.711Z,80.40
2022-09-30T01:40:44.164Z,80.40
2022-09-30T01:43:15.662Z,80.40
2022-09-30T01:45:48.887Z,80.50
2022-09-30T01:48:23.167Z,80.50
2022-09-30T01:50:53.108Z,80.50
2022-09-30T01:53:27.993Z,80.50
2022-09-30T01:56:00.701Z,80.50
2022-09-30T01:58:35.816Z,80.50
2022-09-30T02:01:09.177Z,80.50
2022-09-30T02:03:39.999Z,80.50
2022-09-30T02:06:11.775Z,80.50
2022-09-30T02:08:44.952Z,80.60
2022-09-30T02:11:15.803Z,80.60
2022-09-30T02:13:49.772Z,80.60
2022-09-30T02:16:24.306Z,80.60
2022-09-30T02:18:55.792Z,80.70
2022-09-30T02:21:27.679Z,80.70
2022-09-30T02:24:00.480Z,80.60
2022-09-30T02:26:31.232Z,80.60
2022-09-30T02:29:04.344Z,80.70
2022-09-30T02:31:34.271Z,80.70
2022-09-30T02:34:06.750Z,80.70
2022-09-30T02:36:37.726Z,80.70
2022-09-30T02:39:07.740Z,80.70
2022-09-30T02:41:39.327Z,80.70
2022-09-30T02:44:07.215Z,80.70
2022-09-30T02:46:43.315Z,80.70
2022-09-30T02:49:20.470Z,80.80
2022-09-30T02:52:07.738Z,80.70
2022-09-30T02:54:41.353Z,80.80
2022-09-30T02:57:18.818Z,80.80
2022-09-30T02:59:47.775Z,80.80
2022-09-30T03:02:15.152Z,80.90
2022-09-30T03:04:45.957Z,80.80
2022-09-30T03:07:14.151Z,80.90
2022-09-30T03:09:42.276Z,80.90
2022-09-30T03:12:19.591Z,80.90
2022-09-30T03:15:02.520Z,80.90
2022-09-30T03:18:00.456Z,80.90
2022-09-30T03:20:41.877Z,81.00
2022-09-30T03:23:36.297Z,81.00
2022-09-30T03:26:16.353Z,80.90
2022-09-30T03:28:51.251Z,80.90
2022-09-30T03:31:30.419Z,80.90
2022-09-30T03:34:07.063Z,80.90
2022-09-30T03:36:41.367Z,81.00
2022-09-30T03:39:15.928Z,81.00
2022-09-30T03:41:49.513Z,81.10
2022-09-30T03:44:23.636Z,81.10
2022-09-30T03:46:55.125Z,81.00
2022-09-30T03:49:27.069Z,81.00
2022-09-30T03:51:58.688Z,81.00
2022-09-30T03:54:26.042Z,81.10
2022-09-30T03:56:53.035Z,81.10
2022-09-30T03:59:24.305Z,81.20
2022-09-30T04:01:51.578Z,81.10
2022-09-30T04:04:18.720Z,81.10
2022-09-30T04:06:45.971Z,81.10
2022-09-30T04:09:14.358Z,81.10
2022-09-30T04:11:42.916Z,81.20
2022-09-30T04:14:09.825Z,81.20
2022-09-30T04:16:39.738Z,81.20
2022-09-30T04:19:06.851Z,81.10
2022-09-30T04:21:33.966Z,81.20
2022-09-30T04:24:01.541Z,81.20
2022-09-30T04:26:29.899Z,81.30
2022-09-30T04:28:58.937Z,81.30
2022-09-30T04:31:25.978Z,81.20
2022-09-30T04:33:53.182Z,81.20
2022-09-30T04:36:19.980Z,81.30
2022-09-30T04:38:47.053Z,81.30
2022-09-30T04:41:18.956Z,81.30
2022-09-30T04:43:48.492Z,81.30
2022-09-30T04:46:16.388Z,81.30
2022-09-30T04:48:45.688Z,81.40
2022-09-30T04:51:13.241Z,81.30
2022-09-30T04:53:40.492Z,81.30
2022-09-30T04:56:08.183Z,81.40
2022-09-30T04:58:37.162Z,81.40
2022-09-30T05:01:07.591Z,81.40
2022-09-30T05:03:35.207Z,81.50
2022-09-30T05:06:03.131Z,81.50
2022-09-30T05:08:34.414Z,81.50
2022-09-30T05:11:04.415Z,81.50
2022-09-30T05:13:33.369Z,81.50
2022-09-30T05:16:00.392Z,81.60
2022-09-30T05:18:29.543Z,81.60
2022-09-30T05:20:57.773Z,81.70
2022-09-30T05:23:26.427Z,81.70
2022-09-30T05:25:53.914Z,81.70
2022-09-30T05:28:21.152Z,81.70
2022-09-30T05:30:49.910Z,81.70
2022-09-30T05:33:17.259Z,81.70
2022-09-30T05:35:45.723Z,81.70
2022-09-30T05:38:13.202Z,81.80
2022-09-30T05:40:40.669Z,81.80
2022-09-30T05:43:08.282Z,81.80
2022-09-30T05:45:35.097Z,81.80
2022-09-30T05:48:02.401Z,81.80
2022-09-30T05:50:29.723Z,81.80
2022-09-30T05:52:58.186Z,81.80
2022-09-30T05:55:25.246Z,81.80
2022-09-30T05:57:53.331Z,81.90
2022-09-30T06:00:24.162Z,81.90
2022-09-30T06:02:54.262Z,81.90
2022-09-30T06:05:22.447Z,81.90
2022-09-30T06:07:50.776Z,82.00
2022-09-30T06:10:19.199Z,82.00
2022-09-30T06:12:46.064Z,82.20
2022-09-30T06:15:12.839Z,82.30
2022-09-30T06:17:42.452Z,82.30
2022-09-30T06:20:10.640Z,82.30
2022-09-30T06:22:37.831Z,82.30
2022-09-30T06:25:05.727Z,82.40
2022-09-30T06:27:34.821Z,82.30
2022-09-30T06:30:01.672Z,82.30
2022-09-30T06:32:28.861Z,82.40
2022-09-30T06:34:56.093Z,82.50
2022-09-30T06:37:23.391Z,82.50
2022-09-30T06:39:50.818Z,82.50
2022-09-30T06:42:18.767Z,81.80
2022-09-30T06:44:52.618Z,81.90
2022-09-30T06:47:25.031Z,82.60
2022-09-30T06:49:53.039Z,82.60
2022-09-30T06:52:20.468Z,82.60
2022-09-30T06:54:47.909Z,82.10
2022-09-30T06:57:14.752Z,81.90
2022-09-30T06:59:43.510Z,82.30
2022-09-30T07:02:20.858Z,82.60
2022-09-30T07:04:48.431Z,82.00
2022-09-30T07:07:20.086Z,82.50
2022-09-30T07:09:47.331Z,82.20
2022-09-30T07:12:17.283Z,82.60
2022-09-30T07:14:44.447Z,82.80
2022-09-30T07:17:11.230Z,83.30
2022-09-30T07:19:39.423Z,83.40
2022-09-30T07:22:24.624Z,82.40
2022-09-30T07:24:51.633Z,81.80
2022-09-30T07:27:19.502Z,82.00
2022-09-30T07:32:34.013Z,81.80
2022-09-30T07:35:02.845Z,81.30
2022-09-30T07:37:33.392Z,81.60
2022-09-30T07:40:00.486Z,81.40
2022-09-30T07:42:28.026Z,81.10
2022-09-30T07:44:54.810Z,80.90
2022-09-30T07:47:22.807Z,80.90
2022-09-30T07:49:49.564Z,80.80
2022-09-30T07:52:17.731Z,80.70
2022-09-30T07:54:50.205Z,81.10
2022-09-30T07:57:17.690Z,80.40
2022-09-30T07:59:45.145Z,80.20
2022-09-30T08:02:15.759Z,80.20
2022-09-30T08:04:44.208Z,79.60
2022-09-30T08:07:13.339Z,79.30
2022-09-30T08:09:41.891Z,79.10
2022-09-30T08:12:09.801Z,79.10
2022-09-30T08:14:36.621Z,79.10
2022-09-30T08:17:03.787Z,78.80
2022-09-30T08:19:35.088Z,78.70
2022-09-30T08:24:35.303Z,77.90
2022-09-30T08:27:04.623Z,78.00
2022-09-30T08:32:18.611Z,77.20
2022-09-30T08:34:45.480Z,77.40
2022-09-30T08:37:12.764Z,76.90
2022-09-30T08:39:39.751Z,76.60
2022-09-30T08:42:50.607Z,76.20
2022-09-30T08:45:26.237Z,75.90
2022-09-30T08:48:06.283Z,75.80
2022-09-30T08:50:40.458Z,75.20
2022-09-30T08:53:11.806Z,73.90
2022-09-30T08:55:41.788Z,73.80
2022-09-30T08:58:21.947Z,73.90
2022-09-30T09:00:54.979Z,73.90
2022-09-30T09:03:27.749Z,73.60
2022-09-30T09:06:03.198Z,73.30
2022-09-30T09:08:49.264Z,72.80
2022-09-30T09:11:28.625Z,72.40
2022-09-30T09:14:01.742Z,71.20
2022-09-30T09:16:35.735Z,72.30
2022-09-30T09:19:10.838Z,71.20
2022-09-30T09:21:50.454Z,70.40
2022-09-30T09:24:26.165Z,71.20
2022-09-30T09:26:55.075Z,70.40
2022-09-30T09:29:40.741Z,71.10
2022-09-30T09:32:14.394Z,71.10
2022-09-30T09:34:41.548Z,71.40
2022-09-30T09:37:14.591Z,70.90
2022-09-30T09:40:03.757Z,70.10
2022-09-30T09:43:02.884Z,70.70
2022-09-30T09:45:36.533Z,70.00
2022-09-30T09:48:09.126Z,69.80
2022-09-30T09:50:45.961Z,70.90
2022-09-30T09:53:37.741Z,70.10
2022-09-30T09:56:18.691Z,69.40
2022-09-30T09:59:09.672Z,69.60
2022-09-30T10:01:39.890Z,69.50
2022-09-30T10:04:11.985Z,69.50
2022-09-30T10:06:51.924Z,69.30
2022-09-30T10:09:31.139Z,69.80
2022-09-30T10:12:27.140Z,69.60
2022-09-30T10:15:00.148Z,69.30
2022-09-30T10:17:30.572Z,69.60
2022-09-30T10:20:06.722Z,69.40
2022-09-30T10:22:35.624Z,69.10
2022-09-30T10:25:19.668Z,68.40
2022-09-30T10:27:53.186Z,68.80
2022-09-30T10:30:43.206Z,68.60
2022-09-30T10:33:20.177Z,68.80
2022-09-30T10:36:00.422Z,69.00
2022-09-30T10:38:29.747Z,68.20
2022-09-30T10:40:57.264Z,68.50
2022-09-30T10:43:27.873Z,68.00
2022-09-30T10:46:20.954Z,68.00
2022-09-30T10:48:49.954Z,68.10
2022-09-30T10:51:28.036Z,68.30
2022-09-30T10:53:56.282Z,67.90
2022-09-30T10:56:42.931Z,67.90
2022-09-30T10:59:23.423Z,67.40
2022-09-30T11:01:57.360Z,68.00
2022-09-30T11:04:34.030Z,67.30
2022-09-30T11:07:12.869Z,67.30
2022-09-30T11:09:47.921Z,67.40
2022-09-30T11:12:20.663Z,67.70
2022-09-30T11:14:55.360Z,67.50
2022-09-30T11:17:32.987Z,67.60
2022-09-30T11:20:11.769Z,67.40
2022-09-30T11:22:46.393Z,67.60
2022-09-30T11:25:15.962Z,67.70
2022-09-30T11:28:09.694Z,67.70
2022-09-30T11:30:43.145Z,68.10
2022-09-30T11:33:29.947Z,68.00
2022-09-30T11:36:07.735Z,68.00
2022-09-30T11:38:50.755Z,68.10
2022-09-30T11:41:23.782Z,68.20
2022-09-30T11:44:00.833Z,68.20
2022-09-30T11:46:43.625Z,68.20
2022-09-30T11:49:30.706Z,67.60
2022-09-30T11:52:06.667Z,67.80
2022-09-30T11:54:54.324Z,68.10
2022-09-30T11:57:27.753Z,67.80
2022-09-30T12:00:01.163Z,67.80
2022-09-30T12:02:35.134Z,68.10
2022-09-30T12:05:05.949Z,68.10
2022-09-30T12:07:43.337Z,67.50
2022-09-30T12:10:21.731Z,67.60
2022-09-30T12:12:53.906Z,67.80
2022-09-30T12:15:27.295Z,67.40
2022-09-30T12:17:59.346Z,67.60
2022-09-30T12:20:32.473Z,67.50
2022-09-30T12:23:11.237Z,67.30
2022-09-30T12:25:41.447Z,67.20
2022-09-30T12:28:35.375Z,67.10
2022-09-30T12:31:26.979Z,66.80
2022-09-30T12:34:05.791Z,66.80
2022-09-30T12:36:53.685Z,66.80
2022-09-30T12:40:10.487Z,66.70
2022-09-30T12:42:56.570Z,66.90
2022-09-30T12:46:08.722Z,66.90
2022-09-30T12:48:39.318Z,66.80
2022-09-30T12:51:07.599Z,67.30
2022-09-30T12:53:37.516Z,67.30
2022-09-30T12:56:09.500Z,67.40
2022-09-30T12:58:51.319Z,66.80
2022-09-30T13:01:24.476Z,66.80
2022-09-30T13:04:09.165Z,66.80
2022-09-30T13:07:07.179Z,67.00
2022-09-30T13:09:35.820Z,67.10
2022-09-30T13:12:27.305Z,67.00
2022-09-30T13:15:22.967Z,66.30
2022-09-30T13:17:49.956Z,65.90
2022-09-30T13:20:53.369Z,65.70
2022-09-30T13:23:36.435Z,65.40
2022-09-30T13:26:05.539Z,65.30
2022-09-30T13:28:39.281Z,65.00
2022-09-30T13:31:15.937Z,65.40
2022-09-30T13:33:45.998Z,65.50
2022-09-30T13:36:38.928Z,65.30
2022-09-30T13:39:21.749Z,65.00
2022-09-30T13:42:07.347Z,65.00
2022-09-30T13:44:40.197Z,64.80
2022-09-30T13:47:17.976Z,64.20
2022-09-30T13:49:52.269Z,64.40
2022-09-30T13:52:25.598Z,64.20
2022-09-30T13:54:55.192Z,64.20
2022-09-30T13:57:27.923Z,64.00
2022-09-30T14:00:06.667Z,63.60
2022-09-30T14:03:06.619Z,63.20
2022-09-30T14:05:52.092Z,62.70
2022-09-30T14:08:50.512Z,63.10
2022-09-30T14:11:34.510Z,63.20
2022-09-30T14:14:16.667Z,62.70
2022-09-30T14:17:06.310Z,62.80
2022-09-30T14:20:00.801Z,63.00
2022-09-30T14:22:30.119Z,63.10
2022-09-30T14:24:58.649Z,63.10
2022-09-30T14:27:43.188Z,63.10
2022-09-30T14:30:14.806Z,63.30
2022-09-30T14:32:46.957Z,63.20
2022-09-30T14:35:18.842Z,63.40
2022-09-30T14:37:49.318Z,63.50
2022-09-30T14:40:20.079Z,63.30
2022-09-30T14:42:48.608Z,63.20
2022-09-30T14:45:21.601Z,63.30
2022-09-30T14:47:53.298Z,63.30
2022-09-30T14:50:24.379Z,63.60
2022-09-30T14:52:53.795Z,63.40
2022-09-30T14:55:30.872Z,63.00
2022-09-30T14:58:21.595Z,63.10
2022-09-30T15:00:57.079Z,63.20
2022-09-30T15:03:26.746Z,63.50
2022-09-30T15:05:57.885Z,63.10
2022-09-30T15:08:25.439Z,62.90
2022-09-30T15:10:54.573Z,63.00
2022-09-30T15:13:23.689Z,62.90
2022-09-30T15:15:50.590Z,62.60
2022-09-30T15:18:27.770Z,62.90
2022-09-30T15:20:57.229Z,63.10
2022-09-30T15:23:28.768Z,63.10
2022-09-30T15:25:57.383Z,63.10
2022-09-30T15:28:24.399Z,63.20
2022-09-30T15:30:53.539Z,62.90
2022-09-30T15:33:24.483Z,63.40
2022-09-30T15:36:00.492Z,63.40
2022-09-30T15:38:30.800Z,63.70
2022-09-30T15:41:00.768Z,63.50
2022-09-30T15:43:35.622Z,63.70
2022-09-30T15:46:19.629Z,63.80
2022-09-30T15:48:47.558Z,64.00
2022-09-30T15:51:30.102Z,64.00
2022-09-30T15:54:03.300Z,64.00
2022-09-30T15:56:34.977Z,64.20
2022-09-30T15:59:05.220Z,64.30
2022-09-30T16:01:37.784Z,64.50
2022-09-30T16:04:14.342Z,64.70
2022-09-30T16:06:48.272Z,64.80
2022-09-30T16:09:28.122Z,64.90
2022-09-30T16:12:05.477Z,65.10
2022-09-30T16:14:37.356Z,65.20
2022-09-30T16:17:05.653Z,65.40
2022-09-30T16:19:34.028Z,65.50
2022-09-30T16:22:02.204Z,65.70
2022-09-30T16:24:50.447Z,65.80
2022-09-30T16:27:30.343Z,66.00
2022-09-30T16:29:58.927Z,66.20
2022-09-30T16:32:27.728Z,66.40
2022-09-30T16:34:55.037Z,66.60
2022-09-30T16:37:23.385Z,66.70
2022-09-30T16:39:50.663Z,66.70
2022-09-30T16:42:19.394Z,66.70
2022-09-30T16:44:47.137Z,66.80
2022-09-30T16:47:16.725Z,66.70
2022-09-30T16:49:45.501Z,66.70
2022-09-30T16:52:13.265Z,66.80
2022-09-30T16:54:42.784Z,66.90
2022-09-30T16:57:13.560Z,67.00
2022-09-30T16:59:40.550Z,67.10
2022-09-30T17:02:14.637Z,67.30
2022-09-30T17:04:42.846Z,67.40
2022-09-30T17:07:14.329Z,67.60
2022-09-30T17:09:43.621Z,67.60
2022-09-30T17:12:12.313Z,67.70
2022-09-30T17:14:41.129Z,67.80
2022-09-30T17:17:13.066Z,68.00
2022-09-30T17:19:40.303Z,68.30
2022-09-30T17:22:07.310Z,68.50
2022-09-30T17:24:34.116Z,68.40
2022-09-30T17:27:02.313Z,68.60
2022-09-30T17:29:33.234Z,68.80
2022-09-30T17:32:00.417Z,68.70
2022-09-30T17:34:28.097Z,68.90
2022-09-30T17:36:56.413Z,69.10
2022-09-30T17:39:25.514Z,69.10
2022-09-30T17:42:21.400Z,69.10
2022-09-30T17:44:50.130Z,69.20
2022-09-30T17:47:17.077Z,69.30
2022-09-30T17:49:44.107Z,69.30
2022-09-30T17:52:14.478Z,69.40
2022-09-30T17:54:42.150Z,69.50
2022-09-30T17:57:09.012Z,69.60
2022-09-30T17:59:36.137Z,69.70
2022-09-30T18:02:05.377Z,69.80
2022-09-30T18:04:35.681Z,69.90
2022-09-30T18:07:03.046Z,69.90
2022-09-30T18:09:29.915Z,69.90
2022-09-30T18:11:57.731Z,70.10
2022-09-30T18:14:24.576Z,70.10
2022-09-30T18:16:51.847Z,70.20
2022-09-30T18:19:20.475Z,70.20
2022-09-30T18:21:47.273Z,70.40
2022-09-30T18:24:14.541Z,70.40
2022-09-30T18:26:41.529Z,70.60
2022-09-30T18:29:08.907Z,70.60
2022-09-30T18:31:37.274Z,70.80
2022-09-30T18:34:04.957Z,70.80
2022-09-30T18:36:33.331Z,70.70
2022-09-30T18:39:00.369Z,70.70
2022-09-30T18:41:28.434Z,70.70
2022-09-30T18:44:02.383Z,70.70
2022-09-30T18:46:29.618Z,70.70
2022-09-30T18:48:56.615Z,70.60
2022-09-30T18:51:25.242Z,70.70
2022-09-30T18:53:55.997Z,70.60
2022-09-30T18:56:24.062Z,70.60
2022-09-30T18:58:52.248Z,70.60
2022-09-30T19:01:27.648Z,70.60
2022-09-30T19:03:55.100Z,70.50
2022-09-30T19:06:25.647Z,70.50
2022-09-30T19:08:54.293Z,70.40
2022-09-30T19:11:22.977Z,70.40
2022-09-30T19:13:52.893Z,70.40
2022-09-30T19:16:19.894Z,70.20
2022-09-30T19:18:47.141Z,70.20
2022-09-30T19:21:16.094Z,70.20
2022-09-30T19:23:43.286Z,70.20
2022-09-30T19:26:12.825Z,70.20
2022-09-30T19:28:39.782Z,70.20
2022-09-30T19:31:08.530Z,70.10
2022-09-30T19:33:40.469Z,70.10
2022-09-30T19:36:16.855Z,70.10
2022-09-30T19:38:46.184Z,70.10
2022-09-30T19:41:15.737Z,70.10
2022-09-30T19:43:43.473Z,69.90
2022-09-30T19:46:13.244Z,70.00
2022-09-30T19:48:41.656Z,70.10
2022-09-30T19:51:11.651Z,70.10
2022-09-30T19:53:41.933Z,70.10
2022-09-30T19:56:13.319Z,70.10
2022-09-30T19:58:43.949Z,70.10
2022-09-30T20:01:13.319Z,70.00
2022-09-30T20:03:41.181Z,70.00
2022-09-30T20:06:09.992Z,70.00
2022-09-30T20:08:37.224Z,70.00
2022-09-30T20:11:05.593Z,69.90
2022-09-30T20:13:33.502Z,70.00
2022-09-30T20:16:04.977Z,70.00
2022-09-30T20:18:33.708Z,70.00
2022-09-30T20:21:00.647Z,70.00
2022-09-30T20:23:28.277Z,70.10
2022-09-30T20:25:55.366Z,70.10
2022-09-30T20:28:22.925Z,70.10
2022-09-30T20:30:49.903Z,70.00
2022-09-30T20:33:20.009Z,70.00
2022-09-30T20:35:48.065Z,69.90
2022-09-30T20:38:17.455Z,69.90
2022-09-30T20:40:45.015Z,69.90
2022-09-30T20:43:12.560Z,69.90
2022-09-30T20:45:41.091Z,69.90
2022-09-30T20:48:08.436Z,69.80
2022-09-30T20:50:40.440Z,69.90
2022-09-30T20:53:10.651Z,69.90
2022-09-30T20:55:39.792Z,69.90
2022-09-30T20:58:08.081Z,69.80
2022-09-30T21:00:37.745Z,69.90
2022-09-30T21:03:05.043Z,69.90
2022-09-30T21:05:31.879Z,69.90
2022-09-30T21:08:02.044Z,70.00
2022-09-30T21:10:29.774Z,70.10
2022-09-30T21:12:58.609Z,70.30
2022-09-30T21:15:26.043Z,70.50
2022-09-30T21:17:54.813Z,70.90
2022-09-30T21:20:27.782Z,71.00
2022-09-30T21:22:55.124Z,71.00
2022-09-30T21:25:24.122Z,71.40
2022-09-30T21:27:51.109Z,72.00
2022-09-30T21:30:19.208Z,72.20
2022-09-30T21:32:46.250Z,72.50
2022-09-30T21:35:14.241Z,72.80
2022-09-30T21:37:43.736Z,72.90
2022-09-30T21:40:11.891Z,73.20
2022-09-30T21:42:40.189Z,73.60
2022-09-30T21:45:08.481Z,73.80
2022-09-30T21:47:35.310Z,74.00
2022-09-30T21:50:03.285Z,74.30
2022-09-30T21:52:32.797Z,74.40
2022-09-30T21:55:00.434Z,74.60
2022-09-30T21:57:28.984Z,74.90
2022-09-30T21:59:57.500Z,74.80
2022-09-30T22:02:25.023Z,74.80
2022-09-30T22:04:51.824Z,75.30
2022-09-30T22:07:19.098Z,75.30
2022-09-30T22:09:45.941Z,75.50
2022-09-30T22:12:13.072Z,75.50
2022-09-30T22:14:39.939Z,75.70
2022-09-30T22:17:10.061Z,76.30
2022-09-30T22:19:38.047Z,76.20
2022-09-30T22:22:05.037Z,76.60
2022-09-30T22:24:31.978Z,77.10
2022-09-30T22:26:58.808Z,77.10
2022-09-30T22:29:26.078Z,77.70
2022-09-30T22:31:52.925Z,77.80
2022-09-30T22:34:40.122Z,78.30
2022-09-30T22:37:26.588Z,78.60
2022-09-30T22:39:57.359Z,78.50
2022-09-30T22:42:25.569Z,78.90
2022-09-30T22:44:52.478Z,79.10
2022-09-30T22:47:19.338Z,79.50
2022-09-30T22:49:47.442Z,79.70
2022-09-30T22:52:14.392Z,79.90
2022-09-30T22:54:41.266Z,79.60
2022-09-30T22:57:09.417Z,80.00
2022-09-30T22:59:36.528Z,80.20
2022-09-30T23:02:05.078Z,80.30
2022-09-30T23:04:32.646Z,80.50
2022-09-30T23:07:00.980Z,80.80
2022-09-30T23:09:28.174Z,80.70
2022-09-30T23:11:56.933Z,81.20
2022-09-30T23:14:24.046Z,81.40
2022-09-30T23:16:51.360Z,81.50
2022-09-30T23:19:18.285Z,81.90
2022-09-30T23:21:45.108Z,82.50
2022-09-30T23:24:19.550Z,82.30
2022-09-30T23:26:47.018Z,82.60
2022-09-30T23:29:14.466Z,82.80
2022-09-30T23:31:42.225Z,82.70
2022-09-30T23:34:09.202Z,82.60
2022-09-30T23:36:37.126Z,82.90
2022-09-30T23:39:08.217Z,83.10
2022-09-30T23:41:36.997Z,83.00
2022-09-30T23:44:04.323Z,83.30
2022-09-30T23:46:32.113Z,83.50
2022-09-30T23:48:59.152Z,83.60
2022-09-30T23:51:25.967Z,83.70
2022-09-30T23:53:52.980Z,83.80
2022-09-30T23:56:20.671Z,84.30
2022-09-30T23:58:50.353Z,84.50
